.
WxDataArchive / Data Records for 2011-04-03
2011-04-02 April 2011 2011-04-04

Data Records for Sunday, 03 April 2011

Time	Temp	Chill	HIndex	Humid	Dewpt	 Wind 	HiWind	WindDir	Rain 	Barom 
-----	----	-----	------	-----	-----	------	------	-------	-----	----- 
00:00	31.5	31.5	31.5	81	26.4	0	0	---	0.00	30.007 
00:05	31.3	31.3	31.3	82	26.5	0	0	---	0.00	30.007 
00:10	31.2	31.2	31.2	82	26.4	0	0	---	0.00	30.007 
00:15	31.2	31.2	31.2	82	26.4	0	0	---	0.00	30.013 
00:20	31.2	31.2	31.2	83	26.6	0	0	---	0.00	30.013 
00:25	31.0	31.0	31.0	83	26.5	0	0	---	0.00	30.013 
00:30	31.0	31.0	31.0	83	26.5	0	0	---	0.00	30.018 
00:35	30.9	30.9	30.9	83	26.4	0	0	---	0.00	30.018 
00:40	30.7	30.7	30.7	83	26.2	0	0	---	0.00	30.018 
00:45	30.6	30.6	30.6	84	26.4	0	0	---	0.00	30.022 
00:50	30.4	30.4	30.4	84	26.2	0	0	---	0.00	30.022 
00:55	30.4	30.4	30.4	84	26.2	0	0	---	0.00	30.022 
01:00	30.1	30.1	30.1	84	25.9	0	0	---	0.00	30.028 
01:05	30.0	30.0	30.0	84	25.8	0	0	---	0.00	30.028 
01:10	29.8	29.8	29.8	84	25.6	0	0	---	0.00	30.028 
01:15	29.7	29.7	29.7	84	25.5	0	0	---	0.00	30.027 
01:20	29.5	29.5	29.5	85	25.6	0	0	---	0.00	30.027 
01:25	29.5	29.5	29.5	85	25.6	0	0	---	0.00	30.027 
01:30	29.4	29.4	29.4	85	25.5	0	0	---	0.00	30.034 
01:35	29.3	29.3	29.3	85	25.4	0	0	---	0.00	30.034 
01:40	29.1	29.1	29.1	85	25.2	0	0	---	0.00	30.034 
01:45	29.1	29.1	29.1	86	25.4	0	0	---	0.00	30.037 
01:50	29.1	29.1	29.1	86	25.4	0	0	---	0.00	30.037 
01:55	29.1	29.1	29.1	86	25.4	0	0	---	0.00	30.037 
02:00	29.0	29.0	29.0	86	25.3	0	0	---	0.00	30.045 
02:05	29.0	29.0	29.0	86	25.3	0	0	---	0.00	30.045 
02:10	28.8	28.8	28.8	87	25.4	0	0	---	0.00	30.045 
02:15	28.7	28.7	28.7	87	25.3	0	0	---	0.00	30.042 
02:20	28.7	28.7	28.7	87	25.3	0	0	---	0.00	30.042 
02:25	28.5	28.5	28.5	87	25.1	0	0	---	0.00	30.042 
02:30	28.5	28.5	28.5	87	25.1	0	0	---	0.00	30.042 
02:35	28.4	28.4	28.4	87	25.0	0	0	---	0.00	30.042 
02:40	28.4	28.4	28.4	87	25.0	0	0	---	0.00	30.042 
02:45	28.4	28.4	28.4	87	25.0	0	0	---	0.00	30.038 
02:50	28.2	28.2	28.2	87	24.8	0	0	---	0.00	30.038 
02:55	28.1	28.1	28.1	88	25.0	0	0	---	0.00	30.038 
03:00	28.1	28.1	28.1	88	25.0	0	0	---	0.00	30.031 
03:05	27.9	27.9	27.9	88	24.8	0	0	---	0.00	30.031 
03:10	27.8	27.8	27.8	88	24.7	0	0	---	0.00	30.031 
03:15	27.6	27.6	27.6	88	24.5	0	0	---	0.00	30.032 
03:20	27.6	27.6	27.6	88	24.5	0	0	---	0.00	30.032 
03:25	27.5	27.5	27.5	88	24.4	0	0	---	0.00	30.032 
03:30	27.5	27.5	27.5	88	24.4	0	0	---	0.00	30.031 
03:35	27.6	27.6	27.6	88	24.5	0	0	---	0.00	30.031 
03:40	27.5	27.5	27.5	88	24.4	0	0	---	0.00	30.031 
03:45	27.5	27.5	27.5	89	24.7	0	0	---	0.00	30.030 
03:50	27.5	27.5	27.5	89	24.7	0	0	---	0.00	30.030 
03:55	27.3	27.3	27.3	89	24.5	0	0	---	0.00	30.030 
04:00	27.3	27.3	27.3	89	24.5	0	0	---	0.00	30.030 
04:05	27.2	27.2	27.2	89	24.4	0	0	---	0.00	30.030 
04:10	27.2	27.2	27.2	89	24.4	0	0	---	0.00	30.030 
04:15	27.2	27.2	27.2	89	24.4	0	0	---	0.00	30.026 
04:20	27.2	27.2	27.2	89	24.4	0	0	---	0.00	30.026 
04:25	27.0	27.0	27.0	89	24.2	0	0	---	0.00	30.026 
04:30	27.0	27.0	27.0	89	24.2	0	0	---	0.00	30.024 
04:35	27.2	27.2	27.2	90	24.7	0	0	---	0.00	30.024 
04:40	27.2	27.2	27.2	90	24.7	0	0	---	0.00	30.024 
04:45	27.2	27.2	27.2	90	24.7	0	0	---	0.00	30.027 
04:50	27.0	27.0	27.0	90	24.5	0	0	---	0.00	30.027 
04:55	27.2	27.2	27.2	90	24.7	0	0	---	0.00	30.027 
05:00	27.2	27.2	27.2	90	24.7	0	0	---	0.00	30.029 
05:05	27.0	27.0	27.0	90	24.5	0	0	---	0.00	30.029 
05:10	27.0	27.0	27.0	90	24.5	0	0	---	0.00	30.029 
05:15	27.0	27.0	27.0	90	24.5	0	0	---	0.00	30.029 
05:20	27.0	27.0	27.0	90	24.5	0	0	---	0.00	30.029 
05:25	27.0	27.0	27.0	91	24.7	0	0	---	0.00	30.029 
05:30	27.0	27.0	27.0	91	24.7	0	0	---	0.00	30.030 
05:35	27.0	27.0	27.0	91	24.7	0	0	---	0.00	30.030 
05:40	27.0	27.0	27.0	91	24.7	0	0	---	0.00	30.030 
05:45	27.0	27.0	27.0	91	24.7	0	0	---	0.00	30.024 
05:50	27.0	27.0	27.0	91	24.7	0	0	---	0.00	30.024 
05:55	27.0	27.0	27.0	91	24.7	0	0	---	0.00	30.024 
06:00	27.0	27.0	27.0	91	24.7	0	0	---	0.00	30.030 
06:05	26.9	26.9	26.9	91	24.6	0	0	---	0.00	30.030 
06:10	26.9	26.9	26.9	91	24.6	0	0	---	0.00	30.030 
06:15	26.7	26.7	26.7	91	24.4	0	0	---	0.00	30.036 
06:20	26.7	26.7	26.7	91	24.4	0	0	---	0.00	30.036 
06:25	26.9	26.9	26.9	91	24.6	0	0	---	0.00	30.036 
06:30	26.9	26.9	26.9	91	24.6	0	0	---	0.00	30.043 
06:35	26.9	26.9	26.9	91	24.6	0	0	---	0.00	30.043 
06:40	27.0	27.0	27.0	91	24.7	0	0	---	0.00	30.043 
06:45	27.0	27.0	27.0	91	24.7	0	0	---	0.00	30.047 
06:50	27.2	27.2	27.2	91	24.9	0	0	---	0.00	30.047 
06:55	27.5	27.5	27.5	92	25.5	0	0	---	0.00	30.047 
07:00	28.1	28.1	28.1	92	26.1	0	0	---	0.00	30.045 
07:05	28.5	28.5	28.5	92	26.5	0	0	---	0.00	30.045 
07:10	29.0	29.0	29.0	92	27.0	0	0	---	0.00	30.045 
07:15	29.4	29.4	29.4	93	27.6	0	0	---	0.00	30.045 
07:20	29.8	29.8	29.8	93	28.0	0	0	---	0.00	30.045 
07:25	30.3	30.3	30.3	92	28.3	0	1	270	0.00	30.045 
07:30	30.6	30.6	30.6	92	28.6	0	0	---	0.00	30.033 
07:35	30.9	30.9	30.9	92	28.9	0	0	---	0.00	30.033 
07:40	31.3	31.3	31.3	92	29.3	0	1	270	0.00	30.033 
07:45	31.8	31.8	31.8	92	29.7	0	0	---	0.00	30.039 
07:50	32.2	32.2	32.2	91	29.9	0	1	270	0.00	30.039 
07:55	32.5	32.5	32.5	90	29.9	0	1	270	0.00	30.039 
08:00	32.9	32.9	32.9	89	30.0	0	1	270	0.00	30.026 
08:05	33.2	33.2	33.2	89	30.3	0	1	270	0.00	30.026 
08:10	33.5	33.5	33.5	88	30.3	0	1	270	0.00	30.026 
08:15	33.8	33.8	33.8	88	30.6	0	1	270	0.00	30.030 
08:20	34.1	34.1	34.1	87	30.6	0	1	270	0.00	30.030 
08:25	34.4	34.4	34.4	87	30.9	0	1	270	0.00	30.030 
08:30	34.6	34.6	34.6	86	30.9	0	1	270	0.00	30.034 
08:35	34.9	34.9	34.9	85	30.9	0	2	270	0.00	30.034 
08:40	35.2	35.2	35.2	84	30.9	0	2	270	0.00	30.034 
08:45	35.5	35.5	35.5	83	30.9	0	1	270	0.00	30.027 
08:50	35.8	35.8	35.8	82	30.9	0	1	270	0.00	30.027 
08:55	36.0	36.0	36.0	81	30.7	0	3	270	0.00	30.027 
09:00	36.3	36.3	36.3	81	31.0	0	3	270	0.00	30.029 
09:05	36.5	36.5	36.5	80	30.9	1	3	270	0.00	30.029 
09:10	36.8	36.8	36.8	79	30.9	0	1	270	0.00	30.029 
09:15	37.0	37.0	37.0	80	31.4	0	1	270	0.00	30.046 
09:20	37.2	37.2	37.2	80	31.6	0	2	270	0.00	30.046 
09:25	37.3	37.3	37.3	80	31.7	0	2	270	0.00	30.046 
09:30	37.5	37.5	37.5	80	31.9	0	2	270	0.00	30.047 
09:35	37.6	37.6	37.6	80	32.0	0	1	270	0.00	30.047 
09:40	37.6	37.6	37.6	79	31.7	1	3	270	0.00	30.047 
09:45	37.8	37.8	37.8	78	31.6	1	3	270	0.00	30.036 
09:50	37.8	37.8	37.8	78	31.6	0	2	270	0.00	30.036 
09:55	37.9	37.9	37.9	77	31.3	2	4	135	0.00	30.036 
10:00	38.0	38.0	38.0	77	31.4	3	6	112	0.00	30.017 
10:05	38.2	38.2	38.2	77	31.6	2	5	112	0.00	30.017 
10:10	38.3	38.3	38.3	76	31.4	2	5	112	0.00	30.017 
10:15	38.8	38.8	38.8	76	31.9	1	4	112	0.00	30.019 
10:20	39.1	39.1	39.1	76	32.2	1	2	112	0.00	30.019 
10:25	39.6	39.6	39.6	74	32.0	1	3	90	0.00	30.019 
10:30	40.1	40.1	40.1	73	32.2	1	3	135	0.00	30.028 
10:35	40.5	40.5	40.5	71	31.8	2	4	90	0.00	30.028 
10:40	40.8	40.8	40.8	71	32.1	2	5	112	0.00	30.028 
10:45	40.9	40.9	40.9	71	32.2	2	4	90	0.00	30.016 
10:50	41.1	41.1	41.1	71	32.4	1	9	90	0.00	30.016 
10:55	41.2	41.2	41.2	71	32.5	2	7	90	0.00	30.016 
11:00	41.5	41.5	41.5	70	32.5	3	6	90	0.00	29.997 
11:05	41.8	41.8	41.8	69	32.4	2	6	90	0.00	29.997 
11:10	42.2	42.2	42.2	68	32.4	3	6	90	0.00	29.997 
11:15	42.6	40.3	42.6	66	32.0	4	12	68	0.00	29.988 
11:20	42.9	42.9	42.9	65	32.0	2	5	68	0.00	29.988 
11:25	43.2	43.2	43.2	65	32.2	3	6	90	0.00	29.988 
11:30	43.3	43.3	43.3	65	32.3	3	7	90	0.00	29.982 
11:35	43.3	43.3	43.3	65	32.3	3	6	90	0.00	29.982 
11:40	43.3	43.3	43.3	65	32.3	3	11	90	0.00	29.982 
11:45	43.6	43.6	43.6	65	32.6	3	7	90	0.00	29.965 
11:50	43.9	43.9	43.9	64	32.5	3	11	90	0.00	29.965 
11:55	44.2	44.2	44.2	64	32.8	3	10	90	0.00	29.965 
12:00	44.5	44.5	44.5	63	32.7	2	10	90	0.00	29.956 
12:05	44.8	42.9	44.8	62	32.6	4	9	90	0.00	29.956 
12:10	45.2	45.2	45.2	61	32.6	3	11	112	0.00	29.956 
12:15	45.4	43.6	45.4	59	31.9	4	10	112	0.00	29.937 
12:20	45.7	43.2	45.7	58	31.8	5	13	90	0.00	29.937 
12:25	45.8	43.3	45.8	58	31.9	5	12	112	0.00	29.937 
12:30	46.1	43.6	46.1	59	32.6	5	10	90	0.00	29.916 
12:35	46.2	44.5	46.2	59	32.7	4	11	90	0.00	29.916 
12:40	46.2	43.1	46.2	59	32.7	6	12	90	0.00	29.916 
12:45	46.4	42.9	46.4	59	32.9	7	17	90	0.00	29.885 
12:50	46.5	43.5	46.5	59	33.0	6	12	112	0.00	29.885 
12:55	46.7	45.1	46.7	58	32.7	4	11	112	0.00	29.885 
13:00	46.7	45.1	46.7	59	33.1	4	11	90	0.00	29.871 
13:05	46.7	44.3	46.7	58	32.7	5	10	112	0.00	29.871 
13:10	46.8	44.5	46.8	58	32.8	5	15	90	0.00	29.871 
13:15	47.1	44.8	47.1	57	32.7	5	13	112	0.00	29.844 
13:20	47.4	45.9	47.4	57	32.9	4	12	90	0.00	29.844 
13:25	47.4	45.2	47.4	56	32.5	5	12	112	0.00	29.844 
13:30	47.6	45.4	47.6	57	33.1	5	16	112	0.00	29.824 
13:35	47.6	46.1	47.6	56	32.7	4	12	90	0.00	29.824 
13:40	47.6	45.4	47.6	57	33.1	5	12	90	0.00	29.824 
13:45	47.7	45.5	47.7	57	33.2	5	10	90	0.00	29.814 
13:50	48.0	45.3	48.0	55	32.6	6	14	112	0.00	29.814 
13:55	48.3	46.9	48.3	55	32.9	4	11	90	0.00	29.814 
14:00	48.9	46.4	48.9	55	33.5	6	13	112	0.00	29.789 
14:05	49.4	47.0	49.4	54	33.5	6	16	90	0.00	29.789 
14:10	50.1	50.1	50.1	53	33.6	7	16	90	0.00	29.789 
14:15	50.4	50.4	50.4	52	33.4	5	12	90	0.00	29.769 
14:20	50.7	50.7	50.7	52	33.7	6	15	112	0.00	29.769 
14:25	50.8	50.8	50.8	52	33.8	6	16	112	0.00	29.769 
14:30	51.1	51.1	51.1	52	34.1	6	13	90	0.00	29.752 
14:35	51.4	51.4	51.4	51	33.9	6	11	90	0.00	29.752 
14:40	51.9	51.9	51.9	51	34.3	6	16	90	0.00	29.752 
14:45	52.0	52.0	52.0	51	34.4	6	17	90	0.00	29.719 
14:50	52.2	52.2	52.2	51	34.6	6	13	112	0.00	29.719 
14:55	52.6	52.6	52.6	50	34.5	5	17	112	0.00	29.719 
15:00	53.1	53.1	53.1	51	35.5	5	11	112	0.00	29.709 
15:05	53.6	53.6	53.6	49	34.9	7	18	90	0.00	29.709 
15:10	54.4	54.4	54.4	48	35.1	4	10	90	0.00	29.709 
15:15	55.0	55.0	55.0	47	35.1	6	14	112	0.00	29.692 
15:20	55.1	55.1	55.1	47	35.2	6	16	90	0.00	29.692 
15:25	56.0	56.0	56.0	48	36.6	5	12	90	0.00	29.692 
15:30	57.2	57.2	57.2	45	36.1	5	11	112	0.00	29.660 
15:35	57.6	57.6	57.6	44	35.8	6	13	112	0.00	29.660 
15:40	58.1	58.1	58.1	44	36.3	5	12	112	0.00	29.660 
15:45	59.0	59.0	59.0	42	35.9	6	14	90	0.00	29.640 
15:50	59.3	59.3	59.3	41	35.6	5	10	112	0.00	29.640 
15:55	59.5	59.5	59.5	41	35.8	6	14	90	0.00	29.640 
16:00	59.9	59.9	59.9	41	36.1	5	11	112	0.00	29.624 
16:05	60.2	60.2	60.2	41	36.4	5	12	112	0.00	29.624 
16:10	60.5	60.5	60.5	40	36.1	5	14	90	0.00	29.624 
16:15	60.7	60.7	60.7	40	36.2	6	13	90	0.00	29.606 
16:20	61.0	61.0	61.0	39	35.9	6	13	90	0.00	29.606 
16:25	61.3	61.3	61.3	40	36.8	4	11	90	0.00	29.606 
16:30	61.8	61.8	61.8	38	35.9	4	10	90	0.00	29.607 
16:35	62.3	62.3	62.3	37	35.7	4	10	90	0.00	29.607 
16:40	62.6	62.6	62.6	36	35.3	4	9	90	0.00	29.607 
16:45	62.9	62.9	62.9	36	35.5	5	13	90	0.00	29.602 
16:50	62.9	62.9	62.9	36	35.5	4	11	90	0.00	29.602 
16:55	62.9	62.9	62.9	35	34.8	5	11	90	0.00	29.602 
17:00	63.1	63.1	63.1	36	35.7	4	9	90	0.00	29.589 
17:05	63.1	63.1	63.1	36	35.7	3	11	90	0.00	29.589 
17:10	62.9	62.9	62.9	36	35.5	3	10	90	0.00	29.589 
17:15	62.9	62.9	62.9	36	35.5	4	8	90	0.00	29.579 
17:20	62.7	62.7	62.7	37	36.0	3	10	90	0.00	29.579 
17:25	62.7	62.7	62.7	37	36.0	2	6	90	0.00	29.579 
17:30	62.6	62.6	62.6	38	36.6	2	6	112	0.00	29.561 
17:35	62.4	62.4	62.4	39	37.1	2	6	90	0.00	29.561 
17:40	62.4	62.4	62.4	39	37.1	2	6	112	0.00	29.561 
17:45	62.4	62.4	62.4	39	37.1	4	9	112	0.00	29.554 
17:50	62.4	62.4	62.4	39	37.1	3	6	112	0.00	29.554 
17:55	62.3	62.3	62.3	40	37.7	3	9	112	0.00	29.554 
18:00	62.1	62.1	62.1	40	37.5	4	8	90	0.00	29.532 
18:05	62.0	62.0	62.0	40	37.4	3	9	112	0.00	29.532 
18:10	62.0	62.0	62.0	40	37.4	3	10	112	0.00	29.532 
18:15	62.1	62.1	62.1	40	37.5	3	9	112	0.00	29.523 
18:20	62.1	62.1	62.1	41	38.1	2	6	112	0.00	29.523 
18:25	62.1	62.1	62.1	41	38.1	3	5	112	0.00	29.523 
18:30	62.3	62.3	62.3	40	37.7	3	9	90	0.00	29.513 
18:35	62.3	62.3	62.3	41	38.3	2	6	112	0.00	29.513 
18:40	62.4	62.4	62.4	42	39.0	3	7	112	0.00	29.513 
18:45	62.4	62.4	62.4	42	39.0	2	5	112	0.00	29.510 
18:50	62.6	62.6	62.6	42	39.2	2	5	112	0.00	29.510 
18:55	62.6	62.6	62.6	42	39.2	2	5	112	0.00	29.510 
19:00	62.6	62.6	62.6	42	39.2	2	5	112	0.00	29.497 
19:05	62.7	62.7	62.7	43	39.9	1	5	112	0.00	29.497 
19:10	62.7	62.7	62.7	44	40.5	1	3	112	0.00	29.497 
19:15	62.6	62.6	62.6	44	40.4	1	5	68	0.00	29.488 
19:20	62.7	62.7	62.7	44	40.5	1	3	68	0.00	29.488 
19:25	62.7	62.7	62.7	44	40.5	1	4	68	0.00	29.488 
19:30	62.9	62.9	62.9	44	40.6	1	3	68	0.00	29.475 
19:35	62.9	62.9	62.9	44	40.6	0	2	68	0.00	29.475 
19:40	62.9	62.9	62.9	44	40.6	1	2	68	0.00	29.475 
19:45	62.9	62.9	62.9	45	41.2	1	2	68	0.00	29.471 
19:50	62.7	62.7	62.7	45	41.0	1	2	68	0.00	29.471 
19:55	62.6	62.6	62.6	46	41.5	1	2	68	0.00	29.471 
20:00	62.4	62.4	62.4	46	41.3	1	2	68	0.00	29.459 
20:05	62.3	62.3	62.3	47	41.8	0	2	68	0.00	29.459 
20:10	62.1	62.1	62.1	47	41.6	0	0	---	0.00	29.459 
20:15	62.0	62.0	62.0	48	42.1	0	0	---	0.00	29.452 
20:20	62.0	62.0	62.0	48	42.1	0	0	---	0.00	29.452 
20:25	61.8	61.8	61.8	48	41.9	0	1	68	0.00	29.452 
20:30	61.8	61.8	61.8	48	41.9	0	0	---	0.00	29.452 
20:35	62.0	62.0	62.0	49	42.6	0	0	---	0.00	29.452 
20:40	62.0	62.0	62.0	48	42.1	0	0	---	0.00	29.452 
20:45	62.1	62.1	62.1	49	42.7	0	2	68	0.00	29.452 
20:50	62.0	62.0	62.0	50	43.1	1	2	68	0.00	29.452 
20:55	62.1	62.1	62.1	50	43.2	1	2	68	0.00	29.452 
21:00	62.4	62.4	62.4	50	43.5	1	2	68	0.00	29.441 
21:05	62.4	62.4	62.4	50	43.5	0	2	68	0.00	29.441 
21:10	62.4	62.4	62.4	51	44.0	1	2	68	0.00	29.441 
21:15	62.6	62.6	62.6	51	44.2	0	2	68	0.00	29.433 
21:20	62.7	62.7	62.7	52	44.8	1	2	68	0.00	29.433 
21:25	63.1	63.1	63.1	52	45.2	1	2	68	0.00	29.433 
21:30	63.9	63.9	63.9	50	44.9	2	7	112	0.00	29.423 
21:35	65.2	65.2	65.2	49	45.6	2	7	112	0.00	29.423 
21:40	66.1	66.1	66.1	47	45.3	1	5	68	0.00	29.423 
21:45	66.8	66.8	66.8	46	45.3	2	6	90	0.00	29.413 
21:50	67.1	67.1	67.1	46	45.6	2	4	90	0.00	29.413 
21:55	67.4	67.4	67.4	46	45.9	2	6	90	0.00	29.413 
22:00	67.4	67.4	67.4	46	45.9	2	5	90	0.00	29.407 
22:05	67.6	67.6	67.6	46	46.1	2	5	90	0.00	29.407 
22:10	67.6	67.6	67.6	46	46.1	1	3	90	0.00	29.407 
22:15	67.4	67.4	67.4	46	45.9	2	5	112	0.00	29.409 
22:20	67.4	67.4	67.4	46	45.9	2	4	112	0.00	29.409 
22:25	67.3	67.3	67.3	46	45.8	1	3	135	0.00	29.409 
22:30	67.3	67.3	67.3	46	45.8	1	3	112	0.00	29.401 
22:35	67.1	67.1	67.1	46	45.6	1	3	90	0.00	29.401 
22:40	67.1	67.1	67.1	47	46.2	1	5	158	0.00	29.401 
22:45	66.8	66.8	66.8	47	45.9	1	6	112	0.00	29.397 
22:50	66.4	66.4	66.4	48	46.1	1	5	112	0.00	29.397 
22:55	66.3	66.3	66.3	48	46.0	1	2	112	0.00	29.397 
23:00	66.0	66.0	66.0	49	46.3	1	4	112	0.00	29.392 
23:05	66.0	66.0	66.0	49	46.3	1	4	112	0.00	29.392 
23:10	65.8	65.8	65.8	49	46.1	1	4	112	0.00	29.392 
23:15	65.6	65.6	65.6	49	45.9	1	5	112	0.00	29.384 
23:20	65.5	65.5	65.5	50	46.4	0	2	112	0.00	29.384 
23:25	65.2	65.2	65.2	50	46.1	1	3	112	0.00	29.384 
23:30	65.0	65.0	65.0	51	46.4	1	4	112	0.00	29.383 
23:35	64.8	64.8	64.8	51	46.2	1	5	112	0.00	29.383 
23:40	64.7	64.7	64.7	52	46.7	0	3	112	0.00	29.383 
23:45	64.5	64.5	64.5	52	46.5	1	3	112	0.00	29.373 
23:50	64.3	64.3	64.3	53	46.8	0	3	112	0.00	29.373 
23:55	64.0	64.0	64.0	54	47.0	1	4	90	0.00	29.373 

CoCoRaHS
IN-AL-39
A2 Web Hosting
Creative Commons License
GoDaddy
search engine by freefind advanced

loaded 2018-11-16 00:46:44 • last modified 2010-11-18 10:43:29
Privacy PolicyDisclaimer
• wx.awcolley.com is powered by PmWiki v.2002016 •
• all content (unless otherwise noted) © 2018 A W Colley